sensor_id;sensor_type;location;lat;lon;timestamp;temperature;humidity
16980;DHT22;42288;52.182;21.156;2023-08-08T00:00:35;16.60;99.90
16980;DHT22;42288;52.182;21.156;2023-08-08T00:03:01;16.60;99.90
16980;DHT22;42288;52.182;21.156;2023-08-08T00:05:26;16.60;99.90
16980;DHT22;42288;52.182;21.156;2023-08-08T00:07:52;16.50;99.90
16980;DHT22;42288;52.182;21.156;2023-08-08T00:10:17;16.50;99.90
16980;DHT22;42288;52.182;21.156;2023-08-08T00:12:43;16.50;99.90
16980;DHT22;42288;52.182;21.156;2023-08-08T00:15:08;16.40;99.90
16980;DHT22;42288;52.182;21.156;2023-08-08T00:17:34;16.50;99.90
16980;DHT22;42288;52.182;21.156;2023-08-08T00:20:00;16.40;99.90
16980;DHT22;42288;52.182;21.156;2023-08-08T00:22:26;16.40;99.90
16980;DHT22;42288;52.182;21.156;2023-08-08T00:24:51;16.30;99.90
16980;DHT22;42288;52.182;21.156;2023-08-08T00:27:17;16.30;99.90
16980;DHT22;42288;52.182;21.156;2023-08-08T00:29:42;16.40;99.90
16980;DHT22;42288;52.182;21.156;2023-08-08T00:32:08;16.30;99.90
16980;DHT22;42288;52.182;21.156;2023-08-08T00:34:33;16.30;99.90
16980;DHT22;42288;52.182;21.156;2023-08-08T00:36:59;16.30;99.90
16980;DHT22;42288;52.182;21.156;2023-08-08T00:39:24;16.20;99.90
16980;DHT22;42288;52.182;21.156;2023-08-08T00:41:50;16.20;99.90
16980;DHT22;42288;52.182;21.156;2023-08-08T00:44:15;16.20;99.90
16980;DHT22;42288;52.182;21.156;2023-08-08T00:46:41;16.20;99.90
16980;DHT22;42288;52.182;21.156;2023-08-08T00:49:07;16.30;99.90
16980;DHT22;42288;52.182;21.156;2023-08-08T00:51:32;16.20;99.90
16980;DHT22;42288;52.182;21.156;2023-08-08T00:53:59;16.20;99.90
16980;DHT22;42288;52.182;21.156;2023-08-08T00:56:25;16.20;99.90
16980;DHT22;42288;52.182;21.156;2023-08-08T00:58:51;16.20;99.90
16980;DHT22;42288;52.182;21.156;2023-08-08T01:01:17;16.20;99.90
16980;DHT22;42288;52.182;21.156;2023-08-08T01:03:44;16.20;99.90
16980;DHT22;42288;52.182;21.156;2023-08-08T01:06:55;16.20;99.90
16980;DHT22;42288;52.182;21.156;2023-08-08T01:09:23;16.20;99.90
16980;DHT22;42288;52.182;21.156;2023-08-08T01:11:51;16.20;99.90
16980;DHT22;42288;52.182;21.156;2023-08-08T01:14:17;16.20;99.90
16980;DHT22;42288;52.182;21.156;2023-08-08T01:16:44;16.10;99.90
16980;DHT22;42288;52.182;21.156;2023-08-08T01:19:15;16.10;99.90
16980;DHT22;42288;52.182;21.156;2023-08-08T01:21:45;16.00;99.90
16980;DHT22;42288;52.182;21.156;2023-08-08T01:24:24;16.10;99.90
16980;DHT22;42288;52.182;21.156;2023-08-08T01:26:53;16.00;99.90
16980;DHT22;42288;52.182;21.156;2023-08-08T01:29:18;16.00;99.90
16980;DHT22;42288;52.182;21.156;2023-08-08T01:31:44;16.00;99.90
16980;DHT22;42288;52.182;21.156;2023-08-08T01:34:10;16.00;99.90
16980;DHT22;42288;52.182;21.156;2023-08-08T01:36:49;15.90;99.90
16980;DHT22;42288;52.182;21.156;2023-08-08T01:39:20;15.90;99.90
16980;DHT22;42288;52.182;21.156;2023-08-08T01:41:48;15.90;99.90
16980;DHT22;42288;52.182;21.156;2023-08-08T01:44:15;15.80;99.90
16980;DHT22;42288;52.182;21.156;2023-08-08T01:46:42;15.80;99.90
16980;DHT22;42288;52.182;21.156;2023-08-08T01:49:07;15.80;99.90
16980;DHT22;42288;52.182;21.156;2023-08-08T01:51:33;15.80;99.90
16980;DHT22;42288;52.182;21.156;2023-08-08T01:53:58;15.80;99.90
16980;DHT22;42288;52.182;21.156;2023-08-08T01:56:24;15.80;99.90
16980;DHT22;42288;52.182;21.156;2023-08-08T01:58:49;15.70;99.90
16980;DHT22;42288;52.182;21.156;2023-08-08T02:01:15;15.70;99.90
16980;DHT22;42288;52.182;21.156;2023-08-08T02:03:40;15.80;99.90
16980;DHT22;42288;52.182;21.156;2023-08-08T02:06:06;15.70;99.90
16980;DHT22;42288;52.182;21.156;2023-08-08T02:08:31;15.70;99.90
16980;DHT22;42288;52.182;21.156;2023-08-08T02:10:57;15.80;99.90
16980;DHT22;42288;52.182;21.156;2023-08-08T02:13:23;15.60;99.90
16980;DHT22;42288;52.182;21.156;2023-08-08T02:15:49;15.70;99.90
16980;DHT22;42288;52.182;21.156;2023-08-08T02:18:14;15.60;99.90
16980;DHT22;42288;52.182;21.156;2023-08-08T02:20:40;15.60;99.90
16980;DHT22;42288;52.182;21.156;2023-08-08T02:23:05;15.60;99.90
16980;DHT22;42288;52.182;21.156;2023-08-08T02:25:31;15.60;99.90
16980;DHT22;42288;52.182;21.156;2023-08-08T02:27:57;15.50;99.90
16980;DHT22;42288;52.182;21.156;2023-08-08T02:30:23;15.30;99.90
16980;DHT22;42288;52.182;21.156;2023-08-08T02:32:48;15.40;99.90
16980;DHT22;42288;52.182;21.156;2023-08-08T02:35:14;15.40;99.90
16980;DHT22;42288;52.182;21.156;2023-08-08T02:37:39;15.40;99.90
16980;DHT22;42288;52.182;21.156;2023-08-08T02:40:06;15.40;99.90
16980;DHT22;42288;52.182;21.156;2023-08-08T02:42:32;15.40;99.90
16980;DHT22;42288;52.182;21.156;2023-08-08T02:44:57;15.40;99.90
16980;DHT22;42288;52.182;21.156;2023-08-08T02:47:23;15.30;99.90
16980;DHT22;42288;52.182;21.156;2023-08-08T02:49:49;15.30;99.90
16980;DHT22;42288;52.182;21.156;2023-08-08T02:52:14;15.30;99.90
16980;DHT22;42288;52.182;21.156;2023-08-08T02:54:40;15.30;99.90
16980;DHT22;42288;52.182;21.156;2023-08-08T02:57:05;15.20;99.90
16980;DHT22;42288;52.182;21.156;2023-08-08T02:59:31;15.20;99.90
16980;DHT22;42288;52.182;21.156;2023-08-08T03:01:57;15.20;99.90
16980;DHT22;42288;52.182;21.156;2023-08-08T03:04:22;15.20;99.90
16980;DHT22;42288;52.182;21.156;2023-08-08T03:06:48;15.10;99.90
16980;DHT22;42288;52.182;21.156;2023-08-08T03:09:13;15.10;99.90
16980;DHT22;42288;52.182;21.156;2023-08-08T03:11:39;15.00;99.90
16980;DHT22;42288;52.182;21.156;2023-08-08T03:14:07;15.00;99.90
16980;DHT22;42288;52.182;21.156;2023-08-08T03:16:33;15.10;99.90
16980;DHT22;42288;52.182;21.156;2023-08-08T03:18:59;15.00;99.90
16980;DHT22;42288;52.182;21.156;2023-08-08T03:21:24;15.00;99.90
16980;DHT22;42288;52.182;21.156;2023-08-08T03:23:50;15.00;99.90
16980;DHT22;42288;52.182;21.156;2023-08-08T03:26:15;15.00;99.90
16980;DHT22;42288;52.182;21.156;2023-08-08T03:28:41;15.00;99.90
16980;DHT22;42288;52.182;21.156;2023-08-08T03:31:06;14.90;99.90
16980;DHT22;42288;52.182;21.156;2023-08-08T03:33:32;14.90;99.90
16980;DHT22;42288;52.182;21.156;2023-08-08T03:35:58;15.00;99.90
16980;DHT22;42288;52.182;21.156;2023-08-08T03:38:23;15.00;99.90
16980;DHT22;42288;52.182;21.156;2023-08-08T03:40:50;15.00;99.90
16980;DHT22;42288;52.182;21.156;2023-08-08T03:43:15;15.00;99.90
16980;DHT22;42288;52.182;21.156;2023-08-08T03:45:41;14.90;99.90
16980;DHT22;42288;52.182;21.156;2023-08-08T03:48:07;14.90;99.90
16980;DHT22;42288;52.182;21.156;2023-08-08T03:50:33;14.90;99.90
16980;DHT22;42288;52.182;21.156;2023-08-08T03:52:59;14.90;99.90
16980;DHT22;42288;52.182;21.156;2023-08-08T03:55:24;14.90;99.90
16980;DHT22;42288;52.182;21.156;2023-08-08T03:57:50;14.90;99.90
16980;DHT22;42288;52.182;21.156;2023-08-08T04:00:16;14.80;99.90
16980;DHT22;42288;52.182;21.156;2023-08-08T04:02:42;14.90;99.90
16980;DHT22;42288;52.182;21.156;2023-08-08T04:05:08;14.90;99.90
16980;DHT22;42288;52.182;21.156;2023-08-08T04:07:34;14.90;99.90
16980;DHT22;42288;52.182;21.156;2023-08-08T04:10:00;14.90;99.90
16980;DHT22;42288;52.182;21.156;2023-08-08T04:12:26;14.90;99.90
16980;DHT22;42288;52.182;21.156;2023-08-08T04:14:51;14.80;99.90
16980;DHT22;42288;52.182;21.156;2023-08-08T04:17:17;14.90;99.90
16980;DHT22;42288;52.182;21.156;2023-08-08T04:19:42;15.00;99.90
16980;DHT22;42288;52.182;21.156;2023-08-08T04:22:08;15.00;99.90
16980;DHT22;42288;52.182;21.156;2023-08-08T04:24:34;15.00;99.90
16980;DHT22;42288;52.182;21.156;2023-08-08T04:26:59;15.00;99.90
16980;DHT22;42288;52.182;21.156;2023-08-08T04:29:25;15.10;99.90
16980;DHT22;42288;52.182;21.156;2023-08-08T04:31:50;15.10;99.90
16980;DHT22;42288;52.182;21.156;2023-08-08T04:34:16;15.10;99.90
16980;DHT22;42288;52.182;21.156;2023-08-08T04:36:42;15.10;99.90
16980;DHT22;42288;52.182;21.156;2023-08-08T04:39:08;15.20;99.90
16980;DHT22;42288;52.182;21.156;2023-08-08T04:41:33;15.30;99.90
16980;DHT22;42288;52.182;21.156;2023-08-08T04:43:59;15.50;99.90
16980;DHT22;42288;52.182;21.156;2023-08-08T04:46:24;15.60;99.90
16980;DHT22;42288;52.182;21.156;2023-08-08T04:48:50;15.60;99.90
16980;DHT22;42288;52.182;21.156;2023-08-08T04:51:15;15.80;99.90
16980;DHT22;42288;52.182;21.156;2023-08-08T04:53:41;15.90;99.90
16980;DHT22;42288;52.182;21.156;2023-08-08T04:56:06;15.90;99.90
16980;DHT22;42288;52.182;21.156;2023-08-08T04:58:32;16.00;99.90
16980;DHT22;42288;52.182;21.156;2023-08-08T05:00:57;15.90;99.90
16980;DHT22;42288;52.182;21.156;2023-08-08T05:03:24;15.90;99.90
16980;DHT22;42288;52.182;21.156;2023-08-08T05:05:49;15.90;99.90
16980;DHT22;42288;52.182;21.156;2023-08-08T05:08:15;16.00;99.90
16980;DHT22;42288;52.182;21.156;2023-08-08T05:10:40;16.10;99.90
16980;DHT22;42288;52.182;21.156;2023-08-08T05:13:06;16.30;99.90
16980;DHT22;42288;52.182;21.156;2023-08-08T05:15:32;16.30;99.90
16980;DHT22;42288;52.182;21.156;2023-08-08T05:17:57;16.30;99.90
16980;DHT22;42288;52.182;21.156;2023-08-08T05:20:24;16.30;99.90
16980;DHT22;42288;52.182;21.156;2023-08-08T05:22:50;16.30;99.90
16980;DHT22;42288;52.182;21.156;2023-08-08T05:25:16;16.30;99.90
16980;DHT22;42288;52.182;21.156;2023-08-08T05:27:41;16.40;99.90
16980;DHT22;42288;52.182;21.156;2023-08-08T05:30:07;16.40;99.90
16980;DHT22;42288;52.182;21.156;2023-08-08T05:32:33;16.40;99.90
16980;DHT22;42288;52.182;21.156;2023-08-08T05:34:58;16.40;99.90
16980;DHT22;42288;52.182;21.156;2023-08-08T05:37:26;16.60;99.90
16980;DHT22;42288;52.182;21.156;2023-08-08T05:39:51;16.60;99.90
16980;DHT22;42288;52.182;21.156;2023-08-08T05:42:17;16.70;99.90
16980;DHT22;42288;52.182;21.156;2023-08-08T05:44:43;16.70;99.90
16980;DHT22;42288;52.182;21.156;2023-08-08T05:47:09;16.70;99.90
16980;DHT22;42288;52.182;21.156;2023-08-08T05:49:34;16.80;99.90
16980;DHT22;42288;52.182;21.156;2023-08-08T05:52:01;16.90;99.90
16980;DHT22;42288;52.182;21.156;2023-08-08T05:54:27;16.80;99.90
16980;DHT22;42288;52.182;21.156;2023-08-08T05:56:53;16.90;99.90
16980;DHT22;42288;52.182;21.156;2023-08-08T05:59:19;16.90;99.90
16980;DHT22;42288;52.182;21.156;2023-08-08T06:01:44;17.00;99.90
16980;DHT22;42288;52.182;21.156;2023-08-08T06:04:10;17.20;99.90
16980;DHT22;42288;52.182;21.156;2023-08-08T06:06:36;17.20;99.90
16980;DHT22;42288;52.182;21.156;2023-08-08T06:09:01;17.20;99.90
16980;DHT22;42288;52.182;21.156;2023-08-08T06:11:28;17.10;99.90
16980;DHT22;42288;52.182;21.156;2023-08-08T06:13:53;17.20;99.90
16980;DHT22;42288;52.182;21.156;2023-08-08T06:16:20;17.10;99.90
16980;DHT22;42288;52.182;21.156;2023-08-08T06:18:45;17.20;99.90
16980;DHT22;42288;52.182;21.156;2023-08-08T06:21:11;17.20;99.90
16980;DHT22;42288;52.182;21.156;2023-08-08T06:23:36;17.30;99.90
16980;DHT22;42288;52.182;21.156;2023-08-08T06:26:02;17.30;99.90
16980;DHT22;42288;52.182;21.156;2023-08-08T06:28:28;17.20;99.90
16980;DHT22;42288;52.182;21.156;2023-08-08T06:30:56;17.30;99.90
16980;DHT22;42288;52.182;21.156;2023-08-08T06:33:21;17.30;99.90
16980;DHT22;42288;52.182;21.156;2023-08-08T06:35:47;17.60;99.90
16980;DHT22;42288;52.182;21.156;2023-08-08T06:38:12;17.50;99.90
16980;DHT22;42288;52.182;21.156;2023-08-08T06:40:38;17.50;99.90
16980;DHT22;42288;52.182;21.156;2023-08-08T06:43:04;17.50;99.90
16980;DHT22;42288;52.182;21.156;2023-08-08T06:45:29;17.50;99.90
16980;DHT22;42288;52.182;21.156;2023-08-08T06:47:55;17.50;99.90
16980;DHT22;42288;52.182;21.156;2023-08-08T06:50:20;17.50;99.90
16980;DHT22;42288;52.182;21.156;2023-08-08T06:52:46;17.60;99.90
16980;DHT22;42288;52.182;21.156;2023-08-08T06:55:11;17.70;99.90
16980;DHT22;42288;52.182;21.156;2023-08-08T06:57:37;17.70;99.90
16980;DHT22;42288;52.182;21.156;2023-08-08T07:00:03;17.60;99.90
16980;DHT22;42288;52.182;21.156;2023-08-08T07:02:31;17.60;99.90
16980;DHT22;42288;52.182;21.156;2023-08-08T07:04:57;17.60;99.90
16980;DHT22;42288;52.182;21.156;2023-08-08T07:07:22;17.80;99.90
16980;DHT22;42288;52.182;21.156;2023-08-08T07:09:48;17.80;99.90
16980;DHT22;42288;52.182;21.156;2023-08-08T07:12:14;17.80;99.90
16980;DHT22;42288;52.182;21.156;2023-08-08T07:14:39;17.90;99.90
16980;DHT22;42288;52.182;21.156;2023-08-08T07:17:05;17.90;99.90
16980;DHT22;42288;52.182;21.156;2023-08-08T07:19:31;18.10;99.90
16980;DHT22;42288;52.182;21.156;2023-08-08T07:21:56;18.20;99.90
16980;DHT22;42288;52.182;21.156;2023-08-08T07:24:22;18.10;99.90
16980;DHT22;42288;52.182;21.156;2023-08-08T07:26:51;17.90;99.10
16980;DHT22;42288;52.182;21.156;2023-08-08T07:29:17;18.10;99.60
16980;DHT22;42288;52.182;21.156;2023-08-08T07:31:43;18.20;99.90
16980;DHT22;42288;52.182;21.156;2023-08-08T07:34:08;18.30;99.70
16980;DHT22;42288;52.182;21.156;2023-08-08T07:36:34;18.40;99.50
16980;DHT22;42288;52.182;21.156;2023-08-08T07:38:59;18.50;99.30
16980;DHT22;42288;52.182;21.156;2023-08-08T07:41:26;18.70;99.30
16980;DHT22;42288;52.182;21.156;2023-08-08T07:43:52;18.50;97.20
16980;DHT22;42288;52.182;21.156;2023-08-08T07:46:18;18.30;98.40
16980;DHT22;42288;52.182;21.156;2023-08-08T07:48:43;18.30;98.80
16980;DHT22;42288;52.182;21.156;2023-08-08T07:51:09;18.60;99.20
16980;DHT22;42288;52.182;21.156;2023-08-08T07:53:34;19.00;99.20
16980;DHT22;42288;52.182;21.156;2023-08-08T07:56:00;18.90;98.10
16980;DHT22;42288;52.182;21.156;2023-08-08T07:58:26;18.90;98.50
16980;DHT22;42288;52.182;21.156;2023-08-08T08:00:52;18.90;98.40
16980;DHT22;42288;52.182;21.156;2023-08-08T08:03:19;18.80;97.90
16980;DHT22;42288;52.182;21.156;2023-08-08T08:05:45;18.90;98.00
16980;DHT22;42288;52.182;21.156;2023-08-08T08:08:10;18.90;98.10
16980;DHT22;42288;52.182;21.156;2023-08-08T08:10:36;19.10;97.80
16980;DHT22;42288;52.182;21.156;2023-08-08T08:13:01;19.10;96.90
16980;DHT22;42288;52.182;21.156;2023-08-08T08:15:28;19.20;97.00
16980;DHT22;42288;52.182;21.156;2023-08-08T08:17:53;19.10;95.80
16980;DHT22;42288;52.182;21.156;2023-08-08T08:20:19;19.10;95.50
16980;DHT22;42288;52.182;21.156;2023-08-08T08:22:45;19.10;95.50
16980;DHT22;42288;52.182;21.156;2023-08-08T08:25:11;19.20;95.40
16980;DHT22;42288;52.182;21.156;2023-08-08T08:27:37;19.10;96.10
16980;DHT22;42288;52.182;21.156;2023-08-08T08:30:04;19.20;95.50
16980;DHT22;42288;52.182;21.156;2023-08-08T08:32:34;19.40;96.20
16980;DHT22;42288;52.182;21.156;2023-08-08T08:35:01;19.50;95.90
16980;DHT22;42288;52.182;21.156;2023-08-08T08:37:28;19.70;96.60
16980;DHT22;42288;52.182;21.156;2023-08-08T08:39:53;19.80;95.60
16980;DHT22;42288;52.182;21.156;2023-08-08T08:42:19;19.60;94.90
16980;DHT22;42288;52.182;21.156;2023-08-08T08:44:46;19.80;96.00
16980;DHT22;42288;52.182;21.156;2023-08-08T08:47:12;19.60;95.00
16980;DHT22;42288;52.182;21.156;2023-08-08T08:49:39;19.50;93.30
16980;DHT22;42288;52.182;21.156;2023-08-08T08:52:06;19.50;94.70
16980;DHT22;42288;52.182;21.156;2023-08-08T08:54:32;19.40;94.70
16980;DHT22;42288;52.182;21.156;2023-08-08T08:56:58;19.40;93.80
16980;DHT22;42288;52.182;21.156;2023-08-08T08:59:24;19.70;94.90
16980;DHT22;42288;52.182;21.156;2023-08-08T09:01:51;19.90;94.50
16980;DHT22;42288;52.182;21.156;2023-08-08T09:04:19;20.20;95.20
16980;DHT22;42288;52.182;21.156;2023-08-08T09:06:47;20.40;95.20
16980;DHT22;42288;52.182;21.156;2023-08-08T09:09:12;20.50;95.10
16980;DHT22;42288;52.182;21.156;2023-08-08T09:11:45;20.20;93.00
16980;DHT22;42288;52.182;21.156;2023-08-08T09:16:43;19.80;93.10
16980;DHT22;42288;52.182;21.156;2023-08-08T09:19:08;19.80;93.40
16980;DHT22;42288;52.182;21.156;2023-08-08T09:21:34;19.80;92.70
16980;DHT22;42288;52.182;21.156;2023-08-08T09:24:00;19.60;91.90
16980;DHT22;42288;52.182;21.156;2023-08-08T09:26:26;19.40;93.40
16980;DHT22;42288;52.182;21.156;2023-08-08T09:28:53;19.60;93.10
16980;DHT22;42288;52.182;21.156;2023-08-08T09:31:18;20.00;93.60
16980;DHT22;42288;52.182;21.156;2023-08-08T09:33:44;20.30;93.60
16980;DHT22;42288;52.182;21.156;2023-08-08T09:36:16;20.30;94.70
16980;DHT22;42288;52.182;21.156;2023-08-08T09:38:42;19.90;91.80
16980;DHT22;42288;52.182;21.156;2023-08-08T09:41:07;19.90;92.70
16980;DHT22;42288;52.182;21.156;2023-08-08T09:43:33;19.80;92.50
16980;DHT22;42288;52.182;21.156;2023-08-08T09:45:59;19.70;92.50
16980;DHT22;42288;52.182;21.156;2023-08-08T09:48:33;19.60;92.40
16980;DHT22;42288;52.182;21.156;2023-08-08T09:50:59;19.60;93.20
16980;DHT22;42288;52.182;21.156;2023-08-08T09:53:26;19.90;92.30
16980;DHT22;42288;52.182;21.156;2023-08-08T09:55:56;20.20;91.20
16980;DHT22;42288;52.182;21.156;2023-08-08T09:58:22;20.50;93.10
16980;DHT22;42288;52.182;21.156;2023-08-08T10:00:50;20.50;92.40
16980;DHT22;42288;52.182;21.156;2023-08-08T10:03:18;20.60;90.00
16980;DHT22;42288;52.182;21.156;2023-08-08T10:05:45;20.70;90.40
16980;DHT22;42288;52.182;21.156;2023-08-08T10:08:11;20.50;89.40
16980;DHT22;42288;52.182;21.156;2023-08-08T10:10:37;20.40;90.30
16980;DHT22;42288;52.182;21.156;2023-08-08T10:13:05;20.30;90.10
16980;DHT22;42288;52.182;21.156;2023-08-08T10:15:30;20.40;90.50
16980;DHT22;42288;52.182;21.156;2023-08-08T10:17:57;20.70;90.80
16980;DHT22;42288;52.182;21.156;2023-08-08T10:20:24;21.00;89.90
16980;DHT22;42288;52.182;21.156;2023-08-08T10:22:52;21.20;88.50
16980;DHT22;42288;52.182;21.156;2023-08-08T10:25:23;21.20;87.60
16980;DHT22;42288;52.182;21.156;2023-08-08T10:27:50;21.20;85.00
16980;DHT22;42288;52.182;21.156;2023-08-08T10:30:15;21.00;87.60
16980;DHT22;42288;52.182;21.156;2023-08-08T10:32:43;21.00;87.30
16980;DHT22;42288;52.182;21.156;2023-08-08T10:35:09;20.90;84.40
16980;DHT22;42288;52.182;21.156;2023-08-08T10:37:36;20.90;85.30
16980;DHT22;42288;52.182;21.156;2023-08-08T10:40:04;20.90;86.90
16980;DHT22;42288;52.182;21.156;2023-08-08T10:42:43;21.00;84.80
16980;DHT22;42288;52.182;21.156;2023-08-08T10:45:13;21.40;84.80
16980;DHT22;42288;52.182;21.156;2023-08-08T10:47:40;21.40;85.60
16980;DHT22;42288;52.182;21.156;2023-08-08T10:52:59;22.10;84.20
16980;DHT22;42288;52.182;21.156;2023-08-08T10:55:33;23.00;82.50
16980;DHT22;42288;52.182;21.156;2023-08-08T10:58:05;23.50;76.60
16980;DHT22;42288;52.182;21.156;2023-08-08T11:00:36;23.10;76.80
16980;DHT22;42288;52.182;21.156;2023-08-08T11:03:04;22.80;78.20
16980;DHT22;42288;52.182;21.156;2023-08-08T11:05:32;22.60;78.80
16980;DHT22;42288;52.182;21.156;2023-08-08T11:07:59;22.70;76.10
16980;DHT22;42288;52.182;21.156;2023-08-08T11:10:25;22.60;75.00
16980;DHT22;42288;52.182;21.156;2023-08-08T11:13:03;22.20;75.60
16980;DHT22;42288;52.182;21.156;2023-08-08T11:15:31;21.90;76.20
16980;DHT22;42288;52.182;21.156;2023-08-08T11:17:58;22.10;79.00
16980;DHT22;42288;52.182;21.156;2023-08-08T11:20:24;22.20;77.60
16980;DHT22;42288;52.182;21.156;2023-08-08T11:22:54;22.00;77.50
16980;DHT22;42288;52.182;21.156;2023-08-08T11:25:20;21.90;80.00
16980;DHT22;42288;52.182;21.156;2023-08-08T11:27:50;21.60;79.10
16980;DHT22;42288;52.182;21.156;2023-08-08T11:30:16;21.30;76.60
16980;DHT22;42288;52.182;21.156;2023-08-08T11:32:42;21.30;79.10
16980;DHT22;42288;52.182;21.156;2023-08-08T11:35:08;21.30;76.10
16980;DHT22;42288;52.182;21.156;2023-08-08T11:37:34;21.30;75.90
16980;DHT22;42288;52.182;21.156;2023-08-08T11:40:00;21.70;78.40
16980;DHT22;42288;52.182;21.156;2023-08-08T11:42:26;22.00;76.90
16980;DHT22;42288;52.182;21.156;2023-08-08T11:44:52;21.90;78.20
16980;DHT22;42288;52.182;21.156;2023-08-08T11:47:23;21.90;76.50
16980;DHT22;42288;52.182;21.156;2023-08-08T11:49:51;22.00;75.90
16980;DHT22;42288;52.182;21.156;2023-08-08T11:52:18;22.00;76.90
16980;DHT22;42288;52.182;21.156;2023-08-08T11:54:44;21.90;75.80
16980;DHT22;42288;52.182;21.156;2023-08-08T11:57:09;22.00;75.70
16980;DHT22;42288;52.182;21.156;2023-08-08T11:59:35;22.00;77.00
16980;DHT22;42288;52.182;21.156;2023-08-08T12:02:01;21.70;76.00
16980;DHT22;42288;52.182;21.156;2023-08-08T12:04:27;21.60;75.10
16980;DHT22;42288;52.182;21.156;2023-08-08T12:07:03;21.70;76.90
16980;DHT22;42288;52.182;21.156;2023-08-08T12:09:32;21.70;78.00
16980;DHT22;42288;52.182;21.156;2023-08-08T12:12:01;21.90;77.10
16980;DHT22;42288;52.182;21.156;2023-08-08T12:14:27;22.20;78.20
16980;DHT22;42288;52.182;21.156;2023-08-08T12:16:54;22.40;78.30
16980;DHT22;42288;52.182;21.156;2023-08-08T12:19:23;22.40;72.60
16980;DHT22;42288;52.182;21.156;2023-08-08T12:21:50;22.50;75.30
16980;DHT22;42288;52.182;21.156;2023-08-08T12:24:17;22.50;76.10
16980;DHT22;42288;52.182;21.156;2023-08-08T12:26:43;22.40;73.40
16980;DHT22;42288;52.182;21.156;2023-08-08T12:29:08;22.40;74.40
16980;DHT22;42288;52.182;21.156;2023-08-08T12:31:34;22.20;72.40
16980;DHT22;42288;52.182;21.156;2023-08-08T12:34:00;22.20;72.20
16980;DHT22;42288;52.182;21.156;2023-08-08T12:36:25;22.30;73.10
16980;DHT22;42288;52.182;21.156;2023-08-08T12:38:51;22.40;76.60
16980;DHT22;42288;52.182;21.156;2023-08-08T12:41:16;22.20;71.80
16980;DHT22;42288;52.182;21.156;2023-08-08T12:43:42;22.10;71.30
16980;DHT22;42288;52.182;21.156;2023-08-08T12:46:08;21.80;70.70
16980;DHT22;42288;52.182;21.156;2023-08-08T12:48:33;21.70;72.00
16980;DHT22;42288;52.182;21.156;2023-08-08T12:50:59;21.60;74.20
16980;DHT22;42288;52.182;21.156;2023-08-08T12:53:24;21.50;73.90
16980;DHT22;42288;52.182;21.156;2023-08-08T12:55:50;21.40;74.00
16980;DHT22;42288;52.182;21.156;2023-08-08T12:58:17;21.50;75.30
16980;DHT22;42288;52.182;21.156;2023-08-08T13:00:43;21.70;74.70
16980;DHT22;42288;52.182;21.156;2023-08-08T13:03:08;21.80;76.60
16980;DHT22;42288;52.182;21.156;2023-08-08T13:05:35;21.90;74.20
16980;DHT22;42288;52.182;21.156;2023-08-08T13:08:01;21.90;76.00
16980;DHT22;42288;52.182;21.156;2023-08-08T13:10:26;21.70;74.50
16980;DHT22;42288;52.182;21.156;2023-08-08T13:12:52;21.90;75.10
16980;DHT22;42288;52.182;21.156;2023-08-08T13:15:18;21.90;76.10
16980;DHT22;42288;52.182;21.156;2023-08-08T13:17:43;21.90;72.80
16980;DHT22;42288;52.182;21.156;2023-08-08T13:20:09;21.90;73.40
16980;DHT22;42288;52.182;21.156;2023-08-08T13:22:35;21.90;74.90
16980;DHT22;42288;52.182;21.156;2023-08-08T13:25:00;21.80;70.80
16980;DHT22;42288;52.182;21.156;2023-08-08T13:27:26;21.80;70.80
16980;DHT22;42288;52.182;21.156;2023-08-08T13:29:52;21.80;71.10
16980;DHT22;42288;52.182;21.156;2023-08-08T13:32:17;21.70;70.60
16980;DHT22;42288;52.182;21.156;2023-08-08T13:34:43;21.70;73.40
16980;DHT22;42288;52.182;21.156;2023-08-08T13:37:09;21.80;72.70
16980;DHT22;42288;52.182;21.156;2023-08-08T13:39:35;21.80;71.40
16980;DHT22;42288;52.182;21.156;2023-08-08T13:42:00;21.70;72.70
16980;DHT22;42288;52.182;21.156;2023-08-08T13:44:26;21.40;72.50
16980;DHT22;42288;52.182;21.156;2023-08-08T13:46:51;21.30;75.60
16980;DHT22;42288;52.182;21.156;2023-08-08T13:49:17;21.20;77.00
16980;DHT22;42288;52.182;21.156;2023-08-08T13:51:42;21.00;73.90
16980;DHT22;42288;52.182;21.156;2023-08-08T13:54:09;21.00;74.40
16980;DHT22;42288;52.182;21.156;2023-08-08T13:56:34;21.10;73.80
16980;DHT22;42288;52.182;21.156;2023-08-08T13:59:00;21.00;75.20
16980;DHT22;42288;52.182;21.156;2023-08-08T14:01:25;20.80;74.10
16980;DHT22;42288;52.182;21.156;2023-08-08T14:03:52;20.90;75.50
16980;DHT22;42288;52.182;21.156;2023-08-08T14:06:17;20.90;76.20
16980;DHT22;42288;52.182;21.156;2023-08-08T14:08:43;20.70;75.70
16980;DHT22;42288;52.182;21.156;2023-08-08T14:11:09;20.60;77.00
16980;DHT22;42288;52.182;21.156;2023-08-08T14:13:34;20.60;79.00
16980;DHT22;42288;52.182;21.156;2023-08-08T14:16:00;20.70;81.50
16980;DHT22;42288;52.182;21.156;2023-08-08T14:18:26;20.70;81.00
16980;DHT22;42288;52.182;21.156;2023-08-08T14:20:51;20.60;79.50
16980;DHT22;42288;52.182;21.156;2023-08-08T14:23:17;20.50;79.40
16980;DHT22;42288;52.182;21.156;2023-08-08T14:25:42;20.60;81.20
16980;DHT22;42288;52.182;21.156;2023-08-08T14:28:08;20.70;81.50
16980;DHT22;42288;52.182;21.156;2023-08-08T14:30:33;20.70;80.00
16980;DHT22;42288;52.182;21.156;2023-08-08T14:32:59;20.80;81.20
16980;DHT22;42288;52.182;21.156;2023-08-08T14:35:25;20.90;79.60
16980;DHT22;42288;52.182;21.156;2023-08-08T14:37:50;20.90;79.40
16980;DHT22;42288;52.182;21.156;2023-08-08T14:40:16;20.90;78.20
16980;DHT22;42288;52.182;21.156;2023-08-08T14:42:41;21.10;79.20
16980;DHT22;42288;52.182;21.156;2023-08-08T14:45:07;21.20;77.70
16980;DHT22;42288;52.182;21.156;2023-08-08T14:47:33;21.20;79.20
16980;DHT22;42288;52.182;21.156;2023-08-08T14:49:58;21.20;78.60
16980;DHT22;42288;52.182;21.156;2023-08-08T14:52:24;21.20;80.40
16980;DHT22;42288;52.182;21.156;2023-08-08T14:54:51;21.30;81.30
16980;DHT22;42288;52.182;21.156;2023-08-08T14:57:16;21.30;79.10
16980;DHT22;42288;52.182;21.156;2023-08-08T14:59:42;21.40;79.50
16980;DHT22;42288;52.182;21.156;2023-08-08T15:02:08;21.50;80.00
16980;DHT22;42288;52.182;21.156;2023-08-08T15:04:33;21.50;80.20
16980;DHT22;42288;52.182;21.156;2023-08-08T15:06:59;21.40;79.60
16980;DHT22;42288;52.182;21.156;2023-08-08T15:09:25;21.30;79.00
16980;DHT22;42288;52.182;21.156;2023-08-08T15:11:50;21.20;81.20
16980;DHT22;42288;52.182;21.156;2023-08-08T15:14:16;21.30;81.00